Portada
METAR-TAF:

METAR-TAF

Aeroports :

Shizuoka, Japó

latitud: 34-47-46N, longitud: 138-11-22E, altitud: 132 m

Observació

L'informe es va fer fa 54 minuts, a les 08:00 UTC
Vent 4 kt del Est/Nord-Est
Temperatura 9°C
Humitat 46%
Pressió 1026 hPa
Visibilitat 10 km o més
Escasses núvols a una alçada de 2500 ft
Cel ennuvolat a una alçada de 4000 ft

METAR: RJNS 270800Z 07004KT 9999 FEW025 BKN040 09/M02 Q1026

Hora: 17:54 (08:54 UTC)

Pronòstic

L'informe es va fer fa 3 hores i 48 minuts, a les 05:06 UTC
Pronòstic vàlid del 27 a les 06 UTC al 28 a les 12 UTC
Vent 6 kt del Est/Nord-Est
Visibilitat 10 km o més
Escasses núvols a una alçada de 3000 ft
Núvols disperses a una alçada de 5000 ft
Evolucionant progressivament
l' 27 a les 16 UTC al 27 a les 18 UTC
Vent 5 kt del Nord
Evolucionant progressivament
l' 28 a les 00 UTC al 28 a les 03 UTC
Vent 6 kt del Est

TAF: RJNS 270506Z 2706/2812 06006KT 9999 FEW030 SCT050 BECMG 2716/2718 36005KT BECMG 2800/2803 08006KT

Observacions i pronòstics meteorològics de més de 4000 aeroports (METAR i TAF).

Les estacions disponibles són els punts grocs i vermells al mapa.

Posi el ratolí al punt desitjat per veure el nom de l'estació.

Feu clic per veure les observacions i els pronòstics meteorològics.

Per canviar el mapa: feu clic els botons verds amb una creu de color negre per apropar; al botó verd amb un guió per allunyar la imatge; o en les fletxes verdes per a mapes adjacents.


METAR-TAF: